sensor_id;sensor_type;location;lat;lon;timestamp;temperature;humidity
45383;DHT22;42455;51.660;5.824;2023-06-22T00:01:52;21.6;79.5
45383;DHT22;42455;51.660;5.824;2023-06-22T00:06:58;21.6;80.0
45383;DHT22;42455;51.660;5.824;2023-06-22T00:12:05;21.5;80.5
45383;DHT22;42455;51.660;5.824;2023-06-22T00:17:11;21.5;80.5
45383;DHT22;42455;51.660;5.824;2023-06-22T00:22:17;21.4;81.0
45383;DHT22;42455;51.660;5.824;2023-06-22T00:27:23;21.4;81.5
45383;DHT22;42455;51.660;5.824;2023-06-22T00:32:29;21.4;81.5
45383;DHT22;42455;51.660;5.824;2023-06-22T00:37:36;21.3;82.0
45383;DHT22;42455;51.660;5.824;2023-06-22T00:42:42;21.3;82.0
45383;DHT22;42455;51.660;5.824;2023-06-22T00:47:48;21.3;82.0
45383;DHT22;42455;51.660;5.824;2023-06-22T00:52:56;21.3;82.0
45383;DHT22;42455;51.660;5.824;2023-06-22T00:58:01;21.3;82.5
45383;DHT22;42455;51.660;5.824;2023-06-22T01:03:07;21.2;82.5
45383;DHT22;42455;51.660;5.824;2023-06-22T01:08:23;21.2;82.5
45383;DHT22;42455;51.660;5.824;2023-06-22T01:13:25;21.2;83.0
45383;DHT22;42455;51.660;5.824;2023-06-22T01:18:28;21.1;83.0
45383;DHT22;42455;51.660;5.824;2023-06-22T01:23:56;21.1;83.0
45383;DHT22;42455;51.660;5.824;2023-06-22T01:28:43;21.0;83.5
45383;DHT22;42455;51.660;5.824;2023-06-22T01:33:46;21.0;83.5
45383;DHT22;42455;51.660;5.824;2023-06-22T01:38:52;21.0;84.0
45383;DHT22;42455;51.660;5.824;2023-06-22T01:43:57;21.0;84.0
45383;DHT22;42455;51.660;5.824;2023-06-22T01:49:03;20.9;84.0
45383;DHT22;42455;51.660;5.824;2023-06-22T01:54:09;20.9;84.0
45383;DHT22;42455;51.660;5.824;2023-06-22T01:59:20;20.9;84.5
45383;DHT22;42455;51.660;5.824;2023-06-22T02:04:27;20.8;84.5
45383;DHT22;42455;51.660;5.824;2023-06-22T02:09:29;20.8;84.5
45383;DHT22;42455;51.660;5.824;2023-06-22T02:14:34;20.7;84.5
45383;DHT22;42455;51.660;5.824;2023-06-22T02:19:41;20.7;85.0
45383;DHT22;42455;51.660;5.824;2023-06-22T02:24:45;20.7;85.0
45383;DHT22;42455;51.660;5.824;2023-06-22T02:29:51;20.6;85.0
45383;DHT22;42455;51.660;5.824;2023-06-22T02:34:58;20.6;85.5
45383;DHT22;42455;51.660;5.824;2023-06-22T02:40:04;20.6;85.5
45383;DHT22;42455;51.660;5.824;2023-06-22T02:45:10;20.6;85.5
45383;DHT22;42455;51.660;5.824;2023-06-22T02:50:16;20.6;86.0
45383;DHT22;42455;51.660;5.824;2023-06-22T02:55:22;20.5;86.0
45383;DHT22;42455;51.660;5.824;2023-06-22T03:00:29;20.4;86.0
45383;DHT22;42455;51.660;5.824;2023-06-22T03:05:35;20.4;86.5
45383;DHT22;42455;51.660;5.824;2023-06-22T03:10:41;20.3;86.5
45383;DHT22;42455;51.660;5.824;2023-06-22T03:15:47;20.3;87.0
45383;DHT22;42455;51.660;5.824;2023-06-22T03:20:53;20.3;87.0
45383;DHT22;42455;51.660;5.824;2023-06-22T03:26:00;20.3;87.0
45383;DHT22;42455;51.660;5.824;2023-06-22T03:31:06;20.2;87.0
45383;DHT22;42455;51.660;5.824;2023-06-22T03:36:12;20.2;87.0
45383;DHT22;42455;51.660;5.824;2023-06-22T03:41:18;20.1;87.0
45383;DHT22;42455;51.660;5.824;2023-06-22T03:46:24;20.1;87.0
45383;DHT22;42455;51.660;5.824;2023-06-22T03:51:32;20.1;87.0
45383;DHT22;42455;51.660;5.824;2023-06-22T03:56:37;20.1;87.0
45383;DHT22;42455;51.660;5.824;2023-06-22T04:01:43;20.1;87.0
45383;DHT22;42455;51.660;5.824;2023-06-22T04:06:49;20.0;87.0
45383;DHT22;42455;51.660;5.824;2023-06-22T04:11:55;20.0;87.5
45383;DHT22;42455;51.660;5.824;2023-06-22T04:17:02;19.9;87.5
45383;DHT22;42455;51.660;5.824;2023-06-22T04:22:08;19.9;88.0
45383;DHT22;42455;51.660;5.824;2023-06-22T04:27:14;19.9;88.5
45383;DHT22;42455;51.660;5.824;2023-06-22T04:32:20;19.9;88.5
45383;DHT22;42455;51.660;5.824;2023-06-22T04:37:26;20.0;89.0
45383;DHT22;42455;51.660;5.824;2023-06-22T04:42:34;20.1;89.0
45383;DHT22;42455;51.660;5.824;2023-06-22T04:47:39;20.1;89.5
45383;DHT22;42455;51.660;5.824;2023-06-22T04:52:45;20.2;89.5
45383;DHT22;42455;51.660;5.824;2023-06-22T04:57:51;20.3;90.0
45383;DHT22;42455;51.660;5.824;2023-06-22T05:02:58;20.4;90.0
45383;DHT22;42455;51.660;5.824;2023-06-22T05:08:04;20.6;90.0
45383;DHT22;42455;51.660;5.824;2023-06-22T05:13:10;20.7;90.0
45383;DHT22;42455;51.660;5.824;2023-06-22T05:18:16;20.8;90.0
45383;DHT22;42455;51.660;5.824;2023-06-22T05:23:22;21.0;90.0
45383;DHT22;42455;51.660;5.824;2023-06-22T05:28:29;21.1;90.0
45383;DHT22;42455;51.660;5.824;2023-06-22T05:33:35;21.2;90.0
45383;DHT22;42455;51.660;5.824;2023-06-22T05:38:41;21.4;90.0
45383;DHT22;42455;51.660;5.824;2023-06-22T05:43:47;21.5;90.0
45383;DHT22;42455;51.660;5.824;2023-06-22T05:48:53;21.7;90.0
45383;DHT22;42455;51.660;5.824;2023-06-22T05:54:00;21.9;89.5
45383;DHT22;42455;51.660;5.824;2023-06-22T05:59:06;22.0;89.5
45383;DHT22;42455;51.660;5.824;2023-06-22T06:04:12;22.2;89.0
45383;DHT22;42455;51.660;5.824;2023-06-22T06:09:18;22.3;89.0
45383;DHT22;42455;51.660;5.824;2023-06-22T06:14:24;22.4;88.5
45383;DHT22;42455;51.660;5.824;2023-06-22T06:19:31;22.5;88.5
45383;DHT22;42455;51.660;5.824;2023-06-22T06:24:37;22.6;88.0
45383;DHT22;42455;51.660;5.824;2023-06-22T06:29:43;22.7;88.0
45383;DHT22;42455;51.660;5.824;2023-06-22T06:34:49;22.8;87.5
45383;DHT22;42455;51.660;5.824;2023-06-22T06:39:56;22.8;87.5
45383;DHT22;42455;51.660;5.824;2023-06-22T06:45:02;22.9;87.5
45383;DHT22;42455;51.660;5.824;2023-06-22T06:50:09;23.0;87.5
45383;DHT22;42455;51.660;5.824;2023-06-22T06:55:14;23.1;87.5
45383;DHT22;42455;51.660;5.824;2023-06-22T07:00:20;23.2;87.0
45383;DHT22;42455;51.660;5.824;2023-06-22T07:05:27;23.3;87.0
45383;DHT22;42455;51.660;5.824;2023-06-22T07:10:33;23.3;86.5
45383;DHT22;42455;51.660;5.824;2023-06-22T07:15:39;23.4;86.5
45383;DHT22;42455;51.660;5.824;2023-06-22T07:20:45;23.4;86.5
45383;DHT22;42455;51.660;5.824;2023-06-22T07:25:51;23.5;86.5
45383;DHT22;42455;51.660;5.824;2023-06-22T07:30:58;23.5;86.0
45383;DHT22;42455;51.660;5.824;2023-06-22T07:36:04;23.5;86.0
45383;DHT22;42455;51.660;5.824;2023-06-22T07:41:09;23.6;86.0
45383;DHT22;42455;51.660;5.824;2023-06-22T07:46:15;23.6;86.0
45383;DHT22;42455;51.660;5.824;2023-06-22T07:56:28;23.7;86.0
45383;DHT22;42455;51.660;5.824;2023-06-22T08:01:34;23.9;86.0
45383;DHT22;42455;51.660;5.824;2023-06-22T08:06:40;24.0;86.0
45383;DHT22;42455;51.660;5.824;2023-06-22T08:11:46;24.1;85.5
45383;DHT22;42455;51.660;5.824;2023-06-22T08:16:53;24.3;86.0
45383;DHT22;42455;51.660;5.824;2023-06-22T08:21:59;24.5;85.0
45383;DHT22;42455;51.660;5.824;2023-06-22T08:27:06;24.6;84.5
45383;DHT22;42455;51.660;5.824;2023-06-22T08:32:12;24.8;84.5
45383;DHT22;42455;51.660;5.824;2023-06-22T08:37:17;24.9;84.5
45383;DHT22;42455;51.660;5.824;2023-06-22T08:42:24;25.1;84.0
45383;DHT22;42455;51.660;5.824;2023-06-22T08:47:30;25.2;83.5
45383;DHT22;42455;51.660;5.824;2023-06-22T08:52:36;25.3;83.0
45383;DHT22;42455;51.660;5.824;2023-06-22T08:57:42;25.4;82.5
45383;DHT22;42455;51.660;5.824;2023-06-22T09:02:48;25.5;82.5
45383;DHT22;42455;51.660;5.824;2023-06-22T09:13:01;25.7;81.5
45383;DHT22;42455;51.660;5.824;2023-06-22T09:18:09;25.8;81.0
45383;DHT22;42455;51.660;5.824;2023-06-22T09:23:13;25.8;81.0
45383;DHT22;42455;51.660;5.824;2023-06-22T09:28:19;25.8;80.5
45383;DHT22;42455;51.660;5.824;2023-06-22T09:33:26;25.8;80.5
45383;DHT22;42455;51.660;5.824;2023-06-22T09:38:34;25.8;80.5
45383;DHT22;42455;51.660;5.824;2023-06-22T09:43:38;25.8;80.0
45383;DHT22;42455;51.660;5.824;2023-06-22T09:48:44;25.7;80.0
45383;DHT22;42455;51.660;5.824;2023-06-22T09:53:51;25.7;79.5
45383;DHT22;42455;51.660;5.824;2023-06-22T09:58:57;25.6;79.0
45383;DHT22;42455;51.660;5.824;2023-06-22T10:04:03;25.6;78.5
45383;DHT22;42455;51.660;5.824;2023-06-22T10:09:09;25.5;78.5
45383;DHT22;42455;51.660;5.824;2023-06-22T10:14:15;25.5;78.5
45383;DHT22;42455;51.660;5.824;2023-06-22T10:19:22;25.4;78.5
45383;DHT22;42455;51.660;5.824;2023-06-22T10:24:28;25.4;79.0
45383;DHT22;42455;51.660;5.824;2023-06-22T10:29:34;25.4;79.5
45383;DHT22;42455;51.660;5.824;2023-06-22T10:34:40;25.3;79.5
45383;DHT22;42455;51.660;5.824;2023-06-22T10:39:46;25.3;79.5
45383;DHT22;42455;51.660;5.824;2023-06-22T10:44:53;25.3;80.0
45383;DHT22;42455;51.660;5.824;2023-06-22T10:49:59;25.3;80.0
45383;DHT22;42455;51.660;5.824;2023-06-22T10:55:06;25.3;80.0
45383;DHT22;42455;51.660;5.824;2023-06-22T11:00:12;25.3;80.0
45383;DHT22;42455;51.660;5.824;2023-06-22T11:05:17;25.3;80.0
45383;DHT22;42455;51.660;5.824;2023-06-22T11:10:24;25.3;79.5
45383;DHT22;42455;51.660;5.824;2023-06-22T11:15:30;25.3;79.5
45383;DHT22;42455;51.660;5.824;2023-06-22T11:20:36;25.2;80.5
45383;DHT22;42455;51.660;5.824;2023-06-22T11:25:42;25.1;82.0
45383;DHT22;42455;51.660;5.824;2023-06-22T11:30:48;25.1;82.5
45383;DHT22;42455;51.660;5.824;2023-06-22T11:35:55;24.9;83.5
45383;DHT22;42455;51.660;5.824;2023-06-22T11:41:01;24.7;84.5
45383;DHT22;42455;51.660;5.824;2023-06-22T11:46:07;24.6;85.0
45383;DHT22;42455;51.660;5.824;2023-06-22T11:51:13;24.5;85.0
45383;DHT22;42455;51.660;5.824;2023-06-22T11:56:20;24.3;85.0
45383;DHT22;42455;51.660;5.824;2023-06-22T12:01:26;24.0;86.0
45383;DHT22;42455;51.660;5.824;2023-06-22T12:06:32;23.8;86.5
45383;DHT22;42455;51.660;5.824;2023-06-22T12:11:38;23.6;87.0
45383;DHT22;42455;51.660;5.824;2023-06-22T12:16:44;23.3;87.5
45383;DHT22;42455;51.660;5.824;2023-06-22T12:21:51;23.1;88.5
45383;DHT22;42455;51.660;5.824;2023-06-22T12:26:57;22.9;89.5
45383;DHT22;42455;51.660;5.824;2023-06-22T12:32:04;22.8;90.0
45383;DHT22;42455;51.660;5.824;2023-06-22T12:37:09;22.7;90.5
45383;DHT22;42455;51.660;5.824;2023-06-22T12:42:16;22.7;91.0
45383;DHT22;42455;51.660;5.824;2023-06-22T12:47:22;22.7;91.5
45383;DHT22;42455;51.660;5.824;2023-06-22T12:52:29;22.7;91.5
45383;DHT22;42455;51.660;5.824;2023-06-22T12:57:34;22.6;92.0
45383;DHT22;42455;51.660;5.824;2023-06-22T13:02:40;22.6;92.0
45383;DHT22;42455;51.660;5.824;2023-06-22T13:07:46;22.6;92.5
45383;DHT22;42455;51.660;5.824;2023-06-22T13:12:52;22.6;93.0
45383;DHT22;42455;51.660;5.824;2023-06-22T13:17:58;22.6;93.0
45383;DHT22;42455;51.660;5.824;2023-06-22T13:23:04;22.7;93.0
45383;DHT22;42455;51.660;5.824;2023-06-22T13:28:10;22.7;93.0
45383;DHT22;42455;51.660;5.824;2023-06-22T13:33:16;22.7;93.0
45383;DHT22;42455;51.660;5.824;2023-06-22T13:38:23;22.7;93.0
45383;DHT22;42455;51.660;5.824;2023-06-22T13:43:28;22.7;92.5
45383;DHT22;42455;51.660;5.824;2023-06-22T13:48:34;22.7;92.5
45383;DHT22;42455;51.660;5.824;2023-06-22T13:53:40;22.7;93.0
45383;DHT22;42455;51.660;5.824;2023-06-22T13:58:47;22.7;93.0
45383;DHT22;42455;51.660;5.824;2023-06-22T14:03:53;22.7;93.0
45383;DHT22;42455;51.660;5.824;2023-06-22T14:08:59;22.6;93.0
45383;DHT22;42455;51.660;5.824;2023-06-22T14:14:05;22.5;93.0
45383;DHT22;42455;51.660;5.824;2023-06-22T14:19:12;22.4;93.5
45383;DHT22;42455;51.660;5.824;2023-06-22T14:24:18;22.4;93.5
45383;DHT22;42455;51.660;5.824;2023-06-22T14:29:24;22.3;93.5
45383;DHT22;42455;51.660;5.824;2023-06-22T14:34:30;22.2;93.5
45383;DHT22;42455;51.660;5.824;2023-06-22T14:39:36;22.1;93.5
45383;DHT22;42455;51.660;5.824;2023-06-22T14:44:42;22.0;93.5
45383;DHT22;42455;51.660;5.824;2023-06-22T14:49:49;21.8;94.0
45383;DHT22;42455;51.660;5.824;2023-06-22T14:54:55;21.7;94.0
45383;DHT22;42455;51.660;5.824;2023-06-22T15:00:01;21.7;94.0
45383;DHT22;42455;51.660;5.824;2023-06-22T15:05:07;21.6;94.5
45383;DHT22;42455;51.660;5.824;2023-06-22T15:10:13;21.5;95.0
45383;DHT22;42455;51.660;5.824;2023-06-22T15:15:20;21.4;95.0
45383;DHT22;42455;51.660;5.824;2023-06-22T15:20:26;21.4;95.5
45383;DHT22;42455;51.660;5.824;2023-06-22T15:25:32;21.4;95.5
45383;DHT22;42455;51.660;5.824;2023-06-22T15:30:38;21.4;95.5
45383;DHT22;42455;51.660;5.824;2023-06-22T15:35:45;21.3;96.0
45383;DHT22;42455;51.660;5.824;2023-06-22T15:40:51;21.3;96.0
45383;DHT22;42455;51.660;5.824;2023-06-22T15:45:57;21.3;96.0
45383;DHT22;42455;51.660;5.824;2023-06-22T15:51:03;21.3;96.5
45383;DHT22;42455;51.660;5.824;2023-06-22T16:01:16;21.3;96.0
45383;DHT22;42455;51.660;5.824;2023-06-22T16:06:22;21.2;96.0
45383;DHT22;42455;51.660;5.824;2023-06-22T16:11:28;21.2;96.0
45383;DHT22;42455;51.660;5.824;2023-06-22T16:16:34;21.1;96.0
45383;DHT22;42455;51.660;5.824;2023-06-22T16:21:41;21.1;96.5
45383;DHT22;42455;51.660;5.824;2023-06-22T16:26:47;21.0;96.5
45383;DHT22;42455;51.660;5.824;2023-06-22T16:31:53;21.0;96.5
45383;DHT22;42455;51.660;5.824;2023-06-22T16:36:59;21.0;97.0
45383;DHT22;42455;51.660;5.824;2023-06-22T16:42:05;20.9;97.0
45383;DHT22;42455;51.660;5.824;2023-06-22T16:47:11;20.9;97.0
45383;DHT22;42455;51.660;5.824;2023-06-22T16:52:18;20.9;97.0
45383;DHT22;42455;51.660;5.824;2023-06-22T16:57:24;20.8;97.0
45383;DHT22;42455;51.660;5.824;2023-06-22T17:02:31;20.8;97.5
45383;DHT22;42455;51.660;5.824;2023-06-22T17:07:37;20.8;97.5
45383;DHT22;42455;51.660;5.824;2023-06-22T17:12:43;20.8;97.5
45383;DHT22;42455;51.660;5.824;2023-06-22T17:17:49;20.8;98.0
45383;DHT22;42455;51.660;5.824;2023-06-22T17:22:55;20.8;98.0
45383;DHT22;42455;51.660;5.824;2023-06-22T17:28:02;20.8;98.0
45383;DHT22;42455;51.660;5.824;2023-06-22T17:33:08;20.8;98.0
45383;DHT22;42455;51.660;5.824;2023-06-22T17:38:20;20.8;98.5
45383;DHT22;42455;51.660;5.824;2023-06-22T17:43:20;20.9;98.5
45383;DHT22;42455;51.660;5.824;2023-06-22T17:48:29;20.9;98.5
45383;DHT22;42455;51.660;5.824;2023-06-22T17:53:32;20.9;98.5
45383;DHT22;42455;51.660;5.824;2023-06-22T17:58:38;20.9;98.5
45383;DHT22;42455;51.660;5.824;2023-06-22T18:03:45;20.9;98.5
45383;DHT22;42455;51.660;5.824;2023-06-22T18:08:52;21.0;98.5
45383;DHT22;42455;51.660;5.824;2023-06-22T18:13:57;21.0;98.5
45383;DHT22;42455;51.660;5.824;2023-06-22T18:19:03;21.0;98.5
45383;DHT22;42455;51.660;5.824;2023-06-22T18:24:10;21.1;98.5
45383;DHT22;42455;51.660;5.824;2023-06-22T18:29:16;21.1;98.5
45383;DHT22;42455;51.660;5.824;2023-06-22T18:39:29;21.2;98.5
45383;DHT22;42455;51.660;5.824;2023-06-22T18:44:34;21.2;98.5
45383;DHT22;42455;51.660;5.824;2023-06-22T18:49:44;21.1;98.5
45383;DHT22;42455;51.660;5.824;2023-06-22T18:54:48;21.1;98.5
45383;DHT22;42455;51.660;5.824;2023-06-22T18:59:59;21.1;98.5
45383;DHT22;42455;51.660;5.824;2023-06-22T19:05:05;21.1;98.5
45383;DHT22;42455;51.660;5.824;2023-06-22T19:10:27;21.1;98.5
45383;DHT22;42455;51.660;5.824;2023-06-22T19:15:30;21.1;98.5
45383;DHT22;42455;51.660;5.824;2023-06-22T19:20:18;21.1;98.5
45383;DHT22;42455;51.660;5.824;2023-06-22T19:25:26;21.1;98.5
45383;DHT22;42455;51.660;5.824;2023-06-22T19:30:30;21.0;98.5
45383;DHT22;42455;51.660;5.824;2023-06-22T19:35:35;21.0;98.5
45383;DHT22;42455;51.660;5.824;2023-06-22T19:40:42;20.9;98.5
45383;DHT22;42455;51.660;5.824;2023-06-22T19:45:48;20.9;98.5
45383;DHT22;42455;51.660;5.824;2023-06-22T19:50:55;20.9;98.5
45383;DHT22;42455;51.660;5.824;2023-06-22T19:56:00;20.8;98.5
45383;DHT22;42455;51.660;5.824;2023-06-22T20:01:06;20.8;98.5
45383;DHT22;42455;51.660;5.824;2023-06-22T20:06:15;20.8;98.5
45383;DHT22;42455;51.660;5.824;2023-06-22T20:11:26;20.8;98.5
45383;DHT22;42455;51.660;5.824;2023-06-22T20:16:25;20.7;98.5
45383;DHT22;42455;51.660;5.824;2023-06-22T20:21:32;20.7;98.5
45383;DHT22;42455;51.660;5.824;2023-06-22T20:26:38;20.7;98.5
45383;DHT22;42455;51.660;5.824;2023-06-22T20:31:44;20.6;98.5
45383;DHT22;42455;51.660;5.824;2023-06-22T20:36:50;20.6;98.5
45383;DHT22;42455;51.660;5.824;2023-06-22T20:41:56;20.5;98.5
45383;DHT22;42455;51.660;5.824;2023-06-22T20:47:02;20.5;98.5
45383;DHT22;42455;51.660;5.824;2023-06-22T20:52:09;20.4;98.5
45383;DHT22;42455;51.660;5.824;2023-06-22T20:57:15;20.4;98.5
45383;DHT22;42455;51.660;5.824;2023-06-22T21:02:21;20.3;98.5
45383;DHT22;42455;51.660;5.824;2023-06-22T21:07:27;20.2;98.5
45383;DHT22;42455;51.660;5.824;2023-06-22T21:12:33;20.2;98.0
45383;DHT22;42455;51.660;5.824;2023-06-22T21:17:40;20.1;98.0
45383;DHT22;42455;51.660;5.824;2023-06-22T21:22:46;20.0;98.0
45383;DHT22;42455;51.660;5.824;2023-06-22T21:27:52;20.0;98.0
45383;DHT22;42455;51.660;5.824;2023-06-22T21:32:58;19.9;98.0
45383;DHT22;42455;51.660;5.824;2023-06-22T21:38:05;19.8;98.0
45383;DHT22;42455;51.660;5.824;2023-06-22T21:43:11;19.8;98.0
45383;DHT22;42455;51.660;5.824;2023-06-22T21:48:17;19.7;98.0
45383;DHT22;42455;51.660;5.824;2023-06-22T21:53:23;19.7;98.0
45383;DHT22;42455;51.660;5.824;2023-06-22T21:58:29;19.7;98.0
45383;DHT22;42455;51.660;5.824;2023-06-22T22:03:35;19.6;97.5
45383;DHT22;42455;51.660;5.824;2023-06-22T22:08:42;19.6;97.5
45383;DHT22;42455;51.660;5.824;2023-06-22T22:13:48;19.5;97.5
45383;DHT22;42455;51.660;5.824;2023-06-22T22:18:54;19.5;97.0
45383;DHT22;42455;51.660;5.824;2023-06-22T22:24:00;19.5;97.0
45383;DHT22;42455;51.660;5.824;2023-06-22T22:29:06;19.4;97.0
45383;DHT22;42455;51.660;5.824;2023-06-22T22:34:13;19.4;97.0
45383;DHT22;42455;51.660;5.824;2023-06-22T22:39:30;19.3;96.5
45383;DHT22;42455;51.660;5.824;2023-06-22T22:44:25;19.3;96.5
45383;DHT22;42455;51.660;5.824;2023-06-22T22:49:31;19.2;96.5
45383;DHT22;42455;51.660;5.824;2023-06-22T22:54:37;19.2;96.5
45383;DHT22;42455;51.660;5.824;2023-06-22T22:59:44;19.1;96.5
45383;DHT22;42455;51.660;5.824;2023-06-22T23:04:54;19.1;96.5
45383;DHT22;42455;51.660;5.824;2023-06-22T23:09:57;19.0;96.5
45383;DHT22;42455;51.660;5.824;2023-06-22T23:15:03;18.9;96.5
45383;DHT22;42455;51.660;5.824;2023-06-22T23:20:09;18.9;96.5
45383;DHT22;42455;51.660;5.824;2023-06-22T23:25:15;18.9;96.5
45383;DHT22;42455;51.660;5.824;2023-06-22T23:30:21;18.9;97.0
45383;DHT22;42455;51.660;5.824;2023-06-22T23:35:27;18.9;97.0
45383;DHT22;42455;51.660;5.824;2023-06-22T23:40:33;18.9;97.0
45383;DHT22;42455;51.660;5.824;2023-06-22T23:45:40;18.9;97.0
45383;DHT22;42455;51.660;5.824;2023-06-22T23:50:46;18.9;97.0
45383;DHT22;42455;51.660;5.824;2023-06-22T23:55:52;18.9;97.0
